sensor_id;sensor_type;location;lat;lon;timestamp;pressure;altitude;pressure_sealevel;temperature;humidity
50349;BME280;36250;48.740;22.174;2023-05-21T00:02:02;100797.38;;;18.95;60.01
50349;BME280;36250;48.740;22.174;2023-05-21T00:04:28;100795.44;;;18.96;60.30
50349;BME280;36250;48.740;22.174;2023-05-21T00:06:56;100787.97;;;18.96;60.36
50349;BME280;36250;48.740;22.174;2023-05-21T00:09:21;100779.13;;;18.99;59.81
50349;BME280;36250;48.740;22.174;2023-05-21T00:11:46;100784.59;;;19.05;59.77
50349;BME280;36250;48.740;22.174;2023-05-21T00:14:12;100776.84;;;19.07;59.45
50349;BME280;36250;48.740;22.174;2023-05-21T00:16:37;100786.19;;;19.11;59.45
50349;BME280;36250;48.740;22.174;2023-05-21T00:19:02;100780.97;;;19.09;59.34
50349;BME280;36250;48.740;22.174;2023-05-21T00:21:28;100768.56;;;19.07;59.27
50349;BME280;36250;48.740;22.174;2023-05-21T00:23:54;100775.81;;;18.97;59.56
50349;BME280;36250;48.740;22.174;2023-05-21T00:26:20;100779.50;;;18.88;60.10
50349;BME280;36250;48.740;22.174;2023-05-21T00:28:46;100776.03;;;18.77;60.67
50349;BME280;36250;48.740;22.174;2023-05-21T00:31:11;100784.41;;;18.67;60.70
50349;BME280;36250;48.740;22.174;2023-05-21T00:33:36;100779.47;;;18.64;60.69
50349;BME280;36250;48.740;22.174;2023-05-21T00:36:02;100785.53;;;18.61;60.84
50349;BME280;36250;48.740;22.174;2023-05-21T00:38:27;100772.88;;;18.60;60.54
50349;BME280;36250;48.740;22.174;2023-05-21T00:40:53;100777.28;;;18.61;60.54
50349;BME280;36250;48.740;22.174;2023-05-21T00:43:18;100768.44;;;18.64;60.22
50349;BME280;36250;48.740;22.174;2023-05-21T00:45:43;100780.50;;;18.68;59.98
50349;BME280;36250;48.740;22.174;2023-05-21T00:48:11;100780.50;;;18.68;60.20
50349;BME280;36250;48.740;22.174;2023-05-21T00:50:37;100778.00;;;18.72;60.23
50349;BME280;36250;48.740;22.174;2023-05-21T00:53:04;100779.94;;;18.71;60.45
50349;BME280;36250;48.740;22.174;2023-05-21T00:55:36;100774.72;;;18.70;60.22
50349;BME280;36250;48.740;22.174;2023-05-21T00:58:02;100776.19;;;18.62;60.42
50349;BME280;36250;48.740;22.174;2023-05-21T01:00:32;100773.72;;;18.61;60.71
50349;BME280;36250;48.740;22.174;2023-05-21T01:02:58;100775.91;;;18.59;60.99
50349;BME280;36250;48.740;22.174;2023-05-21T01:05:23;100766.28;;;18.56;60.82
50349;BME280;36250;48.740;22.174;2023-05-21T01:07:49;100773.47;;;18.57;60.92
50349;BME280;36250;48.740;22.174;2023-05-21T01:10:14;100773.47;;;18.57;60.74
50349;BME280;36250;48.740;22.174;2023-05-21T01:12:43;100769.34;;;18.55;60.80
50349;BME280;36250;48.740;22.174;2023-05-21T01:15:09;100761.38;;;18.53;60.88
50349;BME280;36250;48.740;22.174;2023-05-21T01:17:35;100764.97;;;18.49;60.81
50349;BME280;36250;48.740;22.174;2023-05-21T01:20:01;100764.97;;;18.49;60.81
50349;BME280;36250;48.740;22.174;2023-05-21T01:22:34;100763.66;;;18.41;61.52
50349;BME280;36250;48.740;22.174;2023-05-21T01:24:59;100765.84;;;18.39;61.24
50349;BME280;36250;48.740;22.174;2023-05-21T01:27:27;100762.56;;;18.37;61.26
50349;BME280;36250;48.740;22.174;2023-05-21T01:29:52;100758.75;;;18.33;61.41
50349;BME280;36250;48.740;22.174;2023-05-21T01:32:25;100763.72;;;18.31;61.12
50349;BME280;36250;48.740;22.174;2023-05-21T01:35:07;100761.28;;;18.24;61.72
50349;BME280;36250;48.740;22.174;2023-05-21T01:37:55;100755.28;;;18.17;61.57
50349;BME280;36250;48.740;22.174;2023-05-21T01:40:40;100756.97;;;18.13;61.78
50349;BME280;36250;48.740;22.174;2023-05-21T01:43:09;100762.22;;;18.10;61.73
50349;BME280;36250;48.740;22.174;2023-05-21T01:45:39;100763.06;;;18.05;62.01
50349;BME280;36250;48.740;22.174;2023-05-21T01:48:06;100757.88;;;18.04;61.72
50349;BME280;36250;48.740;22.174;2023-05-21T01:50:33;100763.44;;;17.94;62.00
50349;BME280;36250;48.740;22.174;2023-05-21T01:52:59;100765.69;;;17.87;62.63
50349;BME280;36250;48.740;22.174;2023-05-21T01:55:30;100762.25;;;17.56;63.97
50349;BME280;36250;48.740;22.174;2023-05-21T01:57:56;100771.97;;;17.38;64.24
50349;BME280;36250;48.740;22.174;2023-05-21T02:00:24;100763.47;;;17.20;65.04
50349;BME280;36250;48.740;22.174;2023-05-21T02:02:51;100762.44;;;17.05;65.46
50349;BME280;36250;48.740;22.174;2023-05-21T02:05:17;100756.66;;;17.02;65.34
50349;BME280;36250;48.740;22.174;2023-05-21T02:07:43;100754.72;;;17.07;65.50
50349;BME280;36250;48.740;22.174;2023-05-21T02:10:09;100751.13;;;17.12;64.98
50349;BME280;36250;48.740;22.174;2023-05-21T02:12:35;100753.59;;;17.19;64.58
50349;BME280;36250;48.740;22.174;2023-05-21T02:15:01;100760.97;;;17.28;64.13
50349;BME280;36250;48.740;22.174;2023-05-21T02:17:27;100752.13;;;17.36;63.44
50349;BME280;36250;48.740;22.174;2023-05-21T02:19:55;100752.38;;;17.45;63.56
50349;BME280;36250;48.740;22.174;2023-05-21T02:22:21;100751.53;;;17.49;63.12
50349;BME280;36250;48.740;22.174;2023-05-21T02:24:46;100756.50;;;17.52;63.01
50349;BME280;36250;48.740;22.174;2023-05-21T02:27:11;100758.69;;;17.50;63.11
50349;BME280;36250;48.740;22.174;2023-05-21T02:29:38;100753.19;;;17.50;63.10
50349;BME280;36250;48.740;22.174;2023-05-21T02:32:04;100755.94;;;17.50;63.03
50349;BME280;36250;48.740;22.174;2023-05-21T02:34:29;100752.09;;;17.46;62.88
50349;BME280;36250;48.740;22.174;2023-05-21T02:37:00;100763.13;;;17.41;63.19
50349;BME280;36250;48.740;22.174;2023-05-21T02:39:25;100762.06;;;17.32;63.64
50349;BME280;36250;48.740;22.174;2023-05-21T02:41:51;100758.56;;;17.12;64.54
50349;BME280;36250;48.740;22.174;2023-05-21T02:44:16;100752.81;;;16.93;64.88
50349;BME280;36250;48.740;22.174;2023-05-21T02:46:43;100756.69;;;16.87;65.26
50349;BME280;36250;48.740;22.174;2023-05-21T02:49:08;100753.66;;;16.83;65.39
50349;BME280;36250;48.740;22.174;2023-05-21T02:51:34;100753.94;;;16.87;65.11
50349;BME280;36250;48.740;22.174;2023-05-21T02:53:59;100751.75;;;16.89;64.93
50349;BME280;36250;48.740;22.174;2023-05-21T02:56:25;100757.50;;;16.92;64.88
50349;BME280;36250;48.740;22.174;2023-05-21T02:58:50;100753.66;;;16.93;64.42
50349;BME280;36250;48.740;22.174;2023-05-21T03:01:16;100747.88;;;16.95;64.58
50349;BME280;36250;48.740;22.174;2023-05-21T03:03:41;100747.03;;;16.99;63.86
50349;BME280;36250;48.740;22.174;2023-05-21T03:06:06;100742.88;;;17.07;63.41
50349;BME280;36250;48.740;22.174;2023-05-21T03:08:34;100741.22;;;17.16;62.82
50349;BME280;36250;48.740;22.174;2023-05-21T03:11:00;100743.97;;;17.21;63.09
50349;BME280;36250;48.740;22.174;2023-05-21T03:13:25;100740.09;;;17.17;63.33
50349;BME280;36250;48.740;22.174;2023-05-21T03:15:51;100743.44;;;17.14;63.40
50349;BME280;36250;48.740;22.174;2023-05-21T03:18:21;100736.31;;;17.03;63.89
50349;BME280;36250;48.740;22.174;2023-05-21T03:20:46;100736.59;;;16.96;64.21
50349;BME280;36250;48.740;22.174;2023-05-21T03:23:11;100741.81;;;16.93;64.23
50349;BME280;36250;48.740;22.174;2023-05-21T03:25:38;100745.13;;;16.95;64.06
50349;BME280;36250;48.740;22.174;2023-05-21T03:28:03;100740.97;;;17.02;64.09
50349;BME280;36250;48.740;22.174;2023-05-21T03:30:29;100735.44;;;17.13;63.36
50349;BME280;36250;48.740;22.174;2023-05-21T03:32:54;100730.97;;;17.27;63.03
50349;BME280;36250;48.740;22.174;2023-05-21T03:35:20;100736.41;;;17.42;62.27
50349;BME280;36250;48.740;22.174;2023-05-21T03:37:45;100737.47;;;17.51;61.52
50349;BME280;36250;48.740;22.174;2023-05-21T03:40:11;100727.28;;;17.61;61.52
50349;BME280;36250;48.740;22.174;2023-05-21T03:42:37;100730.00;;;17.66;61.02
50349;BME280;36250;48.740;22.174;2023-05-21T03:45:02;100730.50;;;17.73;60.89
50349;BME280;36250;48.740;22.174;2023-05-21T03:47:28;100729.38;;;17.80;60.94
50349;BME280;36250;48.740;22.174;2023-05-21T03:49:53;100728.22;;;17.86;60.71
50349;BME280;36250;48.740;22.174;2023-05-21T03:52:18;100727.09;;;17.92;60.57
50349;BME280;36250;48.740;22.174;2023-05-21T03:54:44;100727.31;;;17.95;60.53
50349;BME280;36250;48.740;22.174;2023-05-21T03:57:09;100727.59;;;17.99;60.57
50349;BME280;36250;48.740;22.174;2023-05-21T03:59:35;100719.84;;;18.01;60.42
50349;BME280;36250;48.740;22.174;2023-05-21T04:02:00;100726.69;;;18.08;59.99
50349;BME280;36250;48.740;22.174;2023-05-21T04:04:25;100719.22;;;18.14;59.85
50349;BME280;36250;48.740;22.174;2023-05-21T04:06:53;100717.53;;;18.18;59.58
50349;BME280;36250;48.740;22.174;2023-05-21T04:09:19;100724.66;;;18.24;59.68
50349;BME280;36250;48.740;22.174;2023-05-21T04:11:45;100719.63;;;18.31;59.12
50349;BME280;36250;48.740;22.174;2023-05-21T04:14:10;100718.72;;;18.41;58.49
50349;BME280;36250;48.740;22.174;2023-05-21T04:16:36;100706.50;;;18.52;58.19
50349;BME280;36250;48.740;22.174;2023-05-21T04:19:03;100712.19;;;18.65;57.67
50349;BME280;36250;48.740;22.174;2023-05-21T04:21:28;100717.59;;;18.75;57.71
50349;BME280;36250;48.740;22.174;2023-05-21T04:23:53;100714.69;;;18.85;57.29
50349;BME280;36250;48.740;22.174;2023-05-21T04:26:21;100707.44;;;18.94;56.78
50349;BME280;36250;48.740;22.174;2023-05-21T04:28:47;100709.78;;;19.06;56.65
50349;BME280;36250;48.740;22.174;2023-05-21T04:31:13;100709.66;;;19.16;56.45
50349;BME280;36250;48.740;22.174;2023-05-21T04:33:39;100720.06;;;19.24;56.32
50349;BME280;36250;48.740;22.174;2023-05-21T04:36:06;100712.84;;;19.28;56.11
50349;BME280;36250;48.740;22.174;2023-05-21T04:38:34;100717.16;;;19.34;55.98
50349;BME280;36250;48.740;22.174;2023-05-21T04:41:01;100716.25;;;19.44;56.19
50349;BME280;36250;48.740;22.174;2023-05-21T04:43:28;100716.41;;;19.52;55.99
50349;BME280;36250;48.740;22.174;2023-05-21T04:45:53;100717.38;;;19.61;55.57
50349;BME280;36250;48.740;22.174;2023-05-21T04:48:19;100720.31;;;19.70;55.16
50349;BME280;36250;48.740;22.174;2023-05-21T04:50:44;100720.25;;;19.75;55.08
50349;BME280;36250;48.740;22.174;2023-05-21T04:53:10;100727.56;;;19.85;55.04
50349;BME280;36250;48.740;22.174;2023-05-21T04:55:35;100726.13;;;19.87;54.60
50349;BME280;36250;48.740;22.174;2023-05-21T04:58:04;100729.84;;;19.96;54.26
50349;BME280;36250;48.740;22.174;2023-05-21T05:00:31;100719.75;;;20.05;54.66
50349;BME280;36250;48.740;22.174;2023-05-21T05:02:57;100716.63;;;20.12;53.84
50349;BME280;36250;48.740;22.174;2023-05-21T05:05:22;100723.66;;;20.23;53.74
50349;BME280;36250;48.740;22.174;2023-05-21T05:07:48;100720.53;;;20.29;54.21
50349;BME280;36250;48.740;22.174;2023-05-21T05:10:13;100730.25;;;20.27;54.17
50349;BME280;36250;48.740;22.174;2023-05-21T05:12:39;100724.31;;;20.34;54.38
50349;BME280;36250;48.740;22.174;2023-05-21T05:15:04;100725.59;;;20.41;54.47
50349;BME280;36250;48.740;22.174;2023-05-21T05:17:30;100724.59;;;20.51;53.63
50349;BME280;36250;48.740;22.174;2023-05-21T05:19:55;100723.91;;;20.59;53.61
50349;BME280;36250;48.740;22.174;2023-05-21T05:22:21;100724.09;;;20.62;53.80
50349;BME280;36250;48.740;22.174;2023-05-21T05:24:46;100714.78;;;20.72;54.39
50349;BME280;36250;48.740;22.174;2023-05-21T05:27:11;100720.63;;;20.84;54.48
50349;BME280;36250;48.740;22.174;2023-05-21T05:29:37;100719.53;;;20.85;53.57
50349;BME280;36250;48.740;22.174;2023-05-21T05:32:02;100726.59;;;20.91;53.41
50349;BME280;36250;48.740;22.174;2023-05-21T05:34:28;100730.59;;;20.98;53.55
50349;BME280;36250;48.740;22.174;2023-05-21T05:36:53;100730.66;;;21.12;53.54
50349;BME280;36250;48.740;22.174;2023-05-21T05:39:18;100730.03;;;21.15;52.27
50349;BME280;36250;48.740;22.174;2023-05-21T05:41:44;100729.81;;;21.25;53.13
50349;BME280;36250;48.740;22.174;2023-05-21T05:44:09;100730.66;;;21.26;58.79
50349;BME280;36250;48.740;22.174;2023-05-21T05:46:34;100723.88;;;21.18;59.75
50349;BME280;36250;48.740;22.174;2023-05-21T05:49:00;100727.25;;;21.15;59.43
50349;BME280;36250;48.740;22.174;2023-05-21T05:51:25;100720.69;;;21.11;56.43
50349;BME280;36250;48.740;22.174;2023-05-21T05:53:52;100724.47;;;21.15;56.93
50349;BME280;36250;48.740;22.174;2023-05-21T05:56:17;100713.84;;;21.22;54.20
50349;BME280;36250;48.740;22.174;2023-05-21T05:58:42;100715.19;;;21.25;57.85
50349;BME280;36250;48.740;22.174;2023-05-21T06:01:08;100709.63;;;21.25;57.93
50349;BME280;36250;48.740;22.174;2023-05-21T06:03:33;100719.13;;;21.32;58.61
50349;BME280;36250;48.740;22.174;2023-05-21T06:05:58;100714.53;;;21.28;59.35
50349;BME280;36250;48.740;22.174;2023-05-21T06:08:23;100712.59;;;21.28;59.74
50349;BME280;36250;48.740;22.174;2023-05-21T06:10:49;100710.31;;;21.30;59.31
50349;BME280;36250;48.740;22.174;2023-05-21T06:13:14;100703.56;;;21.36;60.88
50349;BME280;36250;48.740;22.174;2023-05-21T06:15:40;100705.19;;;21.37;61.27
50349;BME280;36250;48.740;22.174;2023-05-21T06:18:07;100702.03;;;21.44;60.96
50349;BME280;36250;48.740;22.174;2023-05-21T06:20:32;100700.59;;;21.46;61.20
50349;BME280;36250;48.740;22.174;2023-05-21T06:22:58;100699.94;;;21.49;59.19
50349;BME280;36250;48.740;22.174;2023-05-21T06:25:23;100695.03;;;21.46;60.00
50349;BME280;36250;48.740;22.174;2023-05-21T06:27:49;100695.31;;;21.58;61.08
50349;BME280;36250;48.740;22.174;2023-05-21T06:30:15;100690.69;;;21.68;60.28
50349;BME280;36250;48.740;22.174;2023-05-21T06:32:42;100686.56;;;21.65;60.84
50349;BME280;36250;48.740;22.174;2023-05-21T06:35:07;100681.75;;;21.71;60.11
50349;BME280;36250;48.740;22.174;2023-05-21T06:37:33;100689.19;;;21.84;58.96
50349;BME280;36250;48.740;22.174;2023-05-21T06:39:58;100679.44;;;21.86;59.15
50349;BME280;36250;48.740;22.174;2023-05-21T06:42:23;100675.09;;;21.94;59.39
50349;BME280;36250;48.740;22.174;2023-05-21T06:44:49;100677.00;;;22.07;59.65
50349;BME280;36250;48.740;22.174;2023-05-21T06:47:15;100669.03;;;22.28;60.71
50349;BME280;36250;48.740;22.174;2023-05-21T06:49:40;100671.91;;;22.45;59.46
50349;BME280;36250;48.740;22.174;2023-05-21T06:52:05;100671.94;;;22.53;58.23
50349;BME280;36250;48.740;22.174;2023-05-21T06:54:31;100665.91;;;22.60;57.49
50349;BME280;36250;48.740;22.174;2023-05-21T06:56:57;100653.25;;;22.67;58.21
50349;BME280;36250;48.740;22.174;2023-05-21T06:59:22;100660.31;;;22.73;57.46
50349;BME280;36250;48.740;22.174;2023-05-21T07:01:47;100660.19;;;22.78;57.31
50349;BME280;36250;48.740;22.174;2023-05-21T07:04:13;100661.03;;;22.87;54.03
50349;BME280;36250;48.740;22.174;2023-05-21T07:06:38;100656.09;;;22.84;53.54
50349;BME280;36250;48.740;22.174;2023-05-21T07:09:03;100652.75;;;22.96;55.03
50349;BME280;36250;48.740;22.174;2023-05-21T07:11:30;100656.16;;;23.02;53.10
50349;BME280;36250;48.740;22.174;2023-05-21T07:13:58;100650.47;;;23.07;54.04
50349;BME280;36250;48.740;22.174;2023-05-21T07:16:24;100651.00;;;23.26;52.78
50349;BME280;36250;48.740;22.174;2023-05-21T07:18:50;100644.22;;;23.49;51.87
50349;BME280;36250;48.740;22.174;2023-05-21T07:21:16;100636.38;;;23.68;50.73
50349;BME280;36250;48.740;22.174;2023-05-21T07:23:42;100636.53;;;23.80;49.15
50349;BME280;36250;48.740;22.174;2023-05-21T07:26:09;100637.84;;;23.83;48.53
50349;BME280;36250;48.740;22.174;2023-05-21T07:28:35;100635.25;;;23.86;47.13
50349;BME280;36250;48.740;22.174;2023-05-21T07:31:00;100630.66;;;23.90;47.71
50349;BME280;36250;48.740;22.174;2023-05-21T07:33:26;100637.00;;;23.99;46.95
50349;BME280;36250;48.740;22.174;2023-05-21T07:35:52;100628.50;;;24.04;47.15
50349;BME280;36250;48.740;22.174;2023-05-21T07:38:17;100635.88;;;24.17;45.76
50349;BME280;36250;48.740;22.174;2023-05-21T07:40:42;100624.94;;;24.12;46.21
50349;BME280;36250;48.740;22.174;2023-05-21T07:43:07;100624.94;;;24.12;48.15
50349;BME280;36250;48.740;22.174;2023-05-21T07:45:33;100624.72;;;24.26;46.33
50349;BME280;36250;48.740;22.174;2023-05-21T07:47:58;100622.75;;;24.35;46.14
50349;BME280;36250;48.740;22.174;2023-05-21T07:50:24;100629.13;;;24.36;46.18
50349;BME280;36250;48.740;22.174;2023-05-21T07:52:49;100625.53;;;24.35;46.58
50349;BME280;36250;48.740;22.174;2023-05-21T07:55:15;100614.84;;;24.46;46.89
50349;BME280;36250;48.740;22.174;2023-05-21T07:57:40;100609.91;;;24.51;47.06
50349;BME280;36250;48.740;22.174;2023-05-21T08:00:06;100618.25;;;24.60;45.17
50349;BME280;36250;48.740;22.174;2023-05-21T08:02:38;100604.81;;;24.62;42.10
50349;BME280;36250;48.740;22.174;2023-05-21T08:05:03;100601.25;;;24.91;40.96
50349;BME280;36250;48.740;22.174;2023-05-21T08:07:29;100604.69;;;24.96;40.15
50349;BME280;36250;48.740;22.174;2023-05-21T08:09:56;100605.19;;;24.90;41.04
50349;BME280;36250;48.740;22.174;2023-05-21T08:12:21;100594.63;;;25.04;40.97
50349;BME280;36250;48.740;22.174;2023-05-21T08:14:46;100597.78;;;25.23;40.87
50349;BME280;36250;48.740;22.174;2023-05-21T08:17:12;100597.00;;;25.43;39.48
50349;BME280;36250;48.740;22.174;2023-05-21T08:19:37;100592.84;;;25.28;38.95
50349;BME280;36250;48.740;22.174;2023-05-21T08:22:03;100598.88;;;25.30;39.94
50349;BME280;36250;48.740;22.174;2023-05-21T08:24:30;100588.88;;;25.29;41.68
50349;BME280;36250;48.740;22.174;2023-05-21T08:26:56;100592.50;;;25.51;38.51
50349;BME280;36250;48.740;22.174;2023-05-21T08:29:21;100591.41;;;25.43;38.02
50349;BME280;36250;48.740;22.174;2023-05-21T08:31:46;100588.13;;;25.41;39.48
50349;BME280;36250;48.740;22.174;2023-05-21T08:34:12;100587.22;;;25.58;37.43
50349;BME280;36250;48.740;22.174;2023-05-21T08:36:37;100582.78;;;25.77;39.43
50349;BME280;36250;48.740;22.174;2023-05-21T08:39:03;100583.50;;;25.86;37.47
50349;BME280;36250;48.740;22.174;2023-05-21T08:41:30;100585.41;;;25.94;37.67
50349;BME280;36250;48.740;22.174;2023-05-21T08:44:00;100589.59;;;26.00;37.50
50349;BME280;36250;48.740;22.174;2023-05-21T08:46:31;100590.03;;;25.90;36.28
50349;BME280;36250;48.740;22.174;2023-05-21T08:49:00;100584.41;;;25.78;38.41
50349;BME280;36250;48.740;22.174;2023-05-21T08:51:27;100581.56;;;25.87;37.87
50349;BME280;36250;48.740;22.174;2023-05-21T08:53:53;100587.59;;;25.89;36.12
50349;BME280;36250;48.740;22.174;2023-05-21T08:56:20;100583.84;;;25.85;37.94
50349;BME280;36250;48.740;22.174;2023-05-21T08:58:45;100581.19;;;25.88;37.99
50349;BME280;36250;48.740;22.174;2023-05-21T09:01:11;100579.50;;;26.08;35.75
50349;BME280;36250;48.740;22.174;2023-05-21T09:03:39;100577.47;;;26.17;35.49
50349;BME280;36250;48.740;22.174;2023-05-21T09:06:06;100573.41;;;26.27;35.99
50349;BME280;36250;48.740;22.174;2023-05-21T09:08:34;100583.78;;;26.26;38.02
50349;BME280;36250;48.740;22.174;2023-05-21T09:11:02;100583.53;;;26.31;36.25
50349;BME280;36250;48.740;22.174;2023-05-21T09:13:30;100568.19;;;26.25;35.61
50349;BME280;36250;48.740;22.174;2023-05-21T09:15:57;100572.97;;;26.37;34.84
50349;BME280;36250;48.740;22.174;2023-05-21T09:18:22;100571.19;;;26.20;35.42
50349;BME280;36250;48.740;22.174;2023-05-21T09:20:48;100570.06;;;26.33;35.77
50349;BME280;36250;48.740;22.174;2023-05-21T09:23:16;100562.97;;;26.24;34.14
50349;BME280;36250;48.740;22.174;2023-05-21T09:25:45;100567.84;;;26.39;36.52
50349;BME280;36250;48.740;22.174;2023-05-21T09:28:12;100563.25;;;26.67;36.32
50349;BME280;36250;48.740;22.174;2023-05-21T09:30:45;100567.31;;;26.57;35.46
50349;BME280;36250;48.740;22.174;2023-05-21T09:33:11;100562.66;;;26.61;34.03
50349;BME280;36250;48.740;22.174;2023-05-21T09:35:43;100564.06;;;26.67;35.21
50349;BME280;36250;48.740;22.174;2023-05-21T09:38:09;100561.28;;;26.80;34.36
50349;BME280;36250;48.740;22.174;2023-05-21T09:40:34;100561.75;;;26.82;34.29
50349;BME280;36250;48.740;22.174;2023-05-21T09:43:00;100558.69;;;26.74;33.13
50349;BME280;36250;48.740;22.174;2023-05-21T09:45:26;100557.31;;;26.81;34.65
50349;BME280;36250;48.740;22.174;2023-05-21T09:47:53;100552.91;;;26.92;34.63
50349;BME280;36250;48.740;22.174;2023-05-21T09:50:24;100553.97;;;26.87;33.06
50349;BME280;36250;48.740;22.174;2023-05-21T09:52:52;100549.28;;;26.79;33.12
50349;BME280;36250;48.740;22.174;2023-05-21T09:55:21;100546.72;;;26.98;35.28
50349;BME280;36250;48.740;22.174;2023-05-21T09:57:47;100551.50;;;26.86;31.75
50349;BME280;36250;48.740;22.174;2023-05-21T10:00:18;100543.56;;;26.88;30.98
50349;BME280;36250;48.740;22.174;2023-05-21T10:02:46;100547.53;;;26.62;31.39
50349;BME280;36250;48.740;22.174;2023-05-21T10:05:13;100550.88;;;26.68;32.57
50349;BME280;36250;48.740;22.174;2023-05-21T10:07:40;100544.06;;;26.90;33.31
50349;BME280;36250;48.740;22.174;2023-05-21T10:10:11;100546.84;;;27.02;32.28
50349;BME280;36250;48.740;22.174;2023-05-21T10:12:40;100542.19;;;26.94;30.76
50349;BME280;36250;48.740;22.174;2023-05-21T10:15:08;100537.66;;;26.89;31.91
50349;BME280;36250;48.740;22.174;2023-05-21T10:17:36;100536.59;;;26.82;31.29
50349;BME280;36250;48.740;22.174;2023-05-21T10:20:03;100529.38;;;26.81;30.96
50349;BME280;36250;48.740;22.174;2023-05-21T10:22:29;100528.81;;;26.87;32.11
50349;BME280;36250;48.740;22.174;2023-05-21T10:24:55;100527.72;;;27.04;33.69
50349;BME280;36250;48.740;22.174;2023-05-21T10:27:21;100529.28;;;26.89;32.08
50349;BME280;36250;48.740;22.174;2023-05-21T10:29:47;100530.84;;;27.02;32.93
50349;BME280;36250;48.740;22.174;2023-05-21T10:32:14;100521.63;;;27.26;33.39
50349;BME280;36250;48.740;22.174;2023-05-21T10:34:44;100524.88;;;27.40;32.64
50349;BME280;36250;48.740;22.174;2023-05-21T10:37:11;100517.34;;;27.56;30.79
50349;BME280;36250;48.740;22.174;2023-05-21T10:39:37;100517.53;;;27.63;32.08
50349;BME280;36250;48.740;22.174;2023-05-21T10:45:10;100511.59;;;27.25;30.43
50349;BME280;36250;48.740;22.174;2023-05-21T10:48:01;100515.59;;;27.00;33.09
50349;BME280;36250;48.740;22.174;2023-05-21T10:50:44;100507.94;;;26.97;31.51
50349;BME280;36250;48.740;22.174;2023-05-21T10:56:28;100503.06;;;27.33;30.79
50349;BME280;36250;48.740;22.174;2023-05-21T11:01:31;100501.41;;;27.45;31.09
50349;BME280;36250;48.740;22.174;2023-05-21T11:03:58;100500.59;;;27.44;29.67
50349;BME280;36250;48.740;22.174;2023-05-21T11:06:24;100496.91;;;27.68;30.13
50349;BME280;36250;48.740;22.174;2023-05-21T11:08:50;100498.81;;;27.79;30.51
50349;BME280;36250;48.740;22.174;2023-05-21T11:11:48;100502.00;;;27.93;30.37
50349;BME280;36250;48.740;22.174;2023-05-21T11:14:34;100496.34;;;28.37;31.82
50349;BME280;36250;48.740;22.174;2023-05-21T11:17:14;100489.31;;;28.43;28.99
50349;BME280;36250;48.740;22.174;2023-05-21T11:19:41;100493.72;;;28.59;29.04
50349;BME280;36250;48.740;22.174;2023-05-21T11:22:27;100486.06;;;28.41;28.62
50349;BME280;36250;48.740;22.174;2023-05-21T11:24:55;100479.28;;;28.11;28.88
50349;BME280;36250;48.740;22.174;2023-05-21T11:27:35;100487.41;;;28.16;30.01
50349;BME280;36250;48.740;22.174;2023-05-21T11:32:31;100475.38;;;28.62;28.52
50349;BME280;36250;48.740;22.174;2023-05-21T11:34:59;100478.44;;;28.57;27.66
50349;BME280;36250;48.740;22.174;2023-05-21T11:37:27;100475.84;;;28.64;28.18
50349;BME280;36250;48.740;22.174;2023-05-21T11:39:56;100470.63;;;28.82;28.46
50349;BME280;36250;48.740;22.174;2023-05-21T11:44:57;100472.72;;;28.85;27.58
50349;BME280;36250;48.740;22.174;2023-05-21T11:47:24;100474.84;;;28.41;29.00
50349;BME280;36250;48.740;22.174;2023-05-21T11:49:50;100477.09;;;28.51;27.97
50349;BME280;36250;48.740;22.174;2023-05-21T11:52:15;100477.56;;;28.53;29.07
50349;BME280;36250;48.740;22.174;2023-05-21T11:54:43;100470.97;;;28.61;27.79
50349;BME280;36250;48.740;22.174;2023-05-21T11:57:11;100474.72;;;28.69;27.30
50349;BME280;36250;48.740;22.174;2023-05-21T11:59:38;100464.59;;;28.80;27.42
50349;BME280;36250;48.740;22.174;2023-05-21T12:02:05;100469.09;;;28.84;28.26
50349;BME280;36250;48.740;22.174;2023-05-21T12:04:31;100462.78;;;28.87;27.55
50349;BME280;36250;48.740;22.174;2023-05-21T12:07:04;100463.38;;;28.61;28.08
50349;BME280;36250;48.740;22.174;2023-05-21T12:09:40;100460.31;;;28.20;28.22
50349;BME280;36250;48.740;22.174;2023-05-21T12:12:10;100462.94;;;28.28;26.85
50349;BME280;36250;48.740;22.174;2023-05-21T12:14:37;100461.03;;;28.32;27.17
50349;BME280;36250;48.740;22.174;2023-05-21T12:17:03;100458.78;;;28.07;28.62
50349;BME280;36250;48.740;22.174;2023-05-21T12:19:33;100450.47;;;28.26;29.13
50349;BME280;36250;48.740;22.174;2023-05-21T12:22:02;100449.75;;;28.13;27.82
50349;BME280;36250;48.740;22.174;2023-05-21T12:24:28;100452.28;;;28.34;28.82
50349;BME280;36250;48.740;22.174;2023-05-21T12:26:55;100444.81;;;28.57;27.94
50349;BME280;36250;48.740;22.174;2023-05-21T12:29:24;100435.91;;;28.86;26.48
50349;BME280;36250;48.740;22.174;2023-05-21T12:31:50;100433.28;;;29.12;26.88
50349;BME280;36250;48.740;22.174;2023-05-21T12:34:36;100434.03;;;29.28;26.89
50349;BME280;36250;48.740;22.174;2023-05-21T12:37:00;100431.25;;;29.28;26.20
50349;BME280;36250;48.740;22.174;2023-05-21T12:39:26;100433.19;;;29.47;25.79
50349;BME280;36250;48.740;22.174;2023-05-21T12:41:53;100438.16;;;29.54;27.03
50349;BME280;36250;48.740;22.174;2023-05-21T12:44:18;100438.72;;;29.63;25.90
50349;BME280;36250;48.740;22.174;2023-05-21T12:46:43;100426.25;;;29.60;24.91
50349;BME280;36250;48.740;22.174;2023-05-21T12:49:32;100430.78;;;29.46;24.97
50349;BME280;36250;48.740;22.174;2023-05-21T12:51:58;100425.00;;;29.58;25.13
50349;BME280;36250;48.740;22.174;2023-05-21T12:54:31;100427.25;;;29.71;24.83